This is the latest recevied weather packets stored in our database for station/object OE3MHU-12. If no packets are shown the sender has not sent any weather packets the latest 10 day(s).
| Time | Temp. | Humidity | Pressure | Rain* | Wind** | Luminosity | Snow |
|---|---|---|---|---|---|---|---|
| 1788444775 | 26.11° C | 44% | 1017.5 hPa | 0 mm | - | - | - |
| 1788441175 | 26.67° C | 43% | 1017.5 hPa | 0 mm | - | - | - |
| 1788437575 | 26.67° C | 43% | 1017.7 hPa | 0 mm | - | - | - |
| 1788430375 | 26.67° C | 45% | 1018.4 hPa | 0 mm | - | - | - |
| 1788426775 | 26.11° C | 45% | 1019.3 hPa | 0 mm | - | - | - |
| 1788423175 | 25.56° C | 49% | 1019.4 hPa | 0 mm | - | - | - |
| 1788421376 | 23.89° C | 54% | 1019.4 hPa | 0 mm | - | - | - |
| 1788419576 | 22.78° C | 58% | 1019.4 hPa | 0 mm | - | - | - |
| 1788414176 | 14.44° C | 79% | 1019.3 hPa | 0 mm | - | - | - |
| 1788412376 | 14.44° C | 80% | 1019.1 hPa | 0 mm | - | - | - |
| 1788410576 | 14.44° C | 81% | 1019 hPa | 0 mm | - | - | - |
| 1788408778 | - | - | - | - | - | - | - |
| 1788408776 | 14.44° C | 81% | 1018.9 hPa | 0 mm | - | - | - |
| 1788406976 | 13.89° C | 81% | 1018.8 hPa | 0 mm | - | - | - |
| 1788405176 | 14.44° C | 80% | 1019 hPa | 0 mm | - | - | - |
| 1788403376 | 14.44° C | 80% | 1019 hPa | 0 mm | - | - | - |
| 1788401577 | 14.44° C | 80% | 1018.9 hPa | 0 mm | - | - | - |
| 1788379978 | 18.33° C | 68% | 1019 hPa | 0 mm | - | - | - |
| 1788376378 | 19.44° C | 65% | 1018.9 hPa | 0 mm | - | - | - |
| 1788372778 | 21.67° C | 59% | 1018.4 hPa | 0 mm | - | - | - |
| 1788360179 | 26.67° C | 41% | 1018 hPa | 0 mm | - | - | - |
| 1788358379 | 27.22° C | 40% | 1018.1 hPa | 0 mm | - | - | - |
| 1788351179 | 26.67° C | 41% | 1018.9 hPa | 0 mm | - | - | - |
| 1788347579 | 27.78° C | 41% | 1019.4 hPa | 0 mm | - | - | - |
| 1788345781 | 27.78° C | 40% | 1019.7 hPa | 0 mm | - | - | - |
* Rain latest hour (hover to see other rain measurements)
** Current wind speed in m/s (hover to see current wind gust speed)